MAPA DE AEROPUERTO

INFORMACIÓN METAR y TAF

METAR FOR LERS
ADDS - METARS form results

(0919 UTC 05 December 2020)
Data provider http://aviationweather.gov/metar/data/
 
METAR text: LERS 050900Z 31012KT 260V010 9999 FEW025 09/M01 Q0998
Conditions at: LERS (REUS (CIV/MIL) , ES) observed 0900 UTC 05 December 2020
Temperature: 9.0°C (48°F)
Dewpoint: -1.0°C (30°F) [RH = 49%]
Pressure (altimeter): 29.47 inches Hg (998.0 mb)
Winds: from the NW (310 degrees) at 14 MPH (12 knots; 6.2 m/s)
Visibility: 6 or more miles (10+ km)
Ceiling: at least 12,000 feet AGL
Clouds: few clouds at 2500 feet AGL
Weather: no significant weather observed at this time

METAR text: LERS 050830Z 26011KT 210V320 CAVOK 08/M01 Q0998
Conditions at: LERS (REUS (CIV/MIL) , ES) observed 0830 UTC 05 December 2020
Temperature: 8.0°C (46°F)
Dewpoint: -1.0°C (30°F) [RH = 53%]
Pressure (altimeter): 29.47 inches Hg (998.0 mb)
Winds: from the W (260 degrees) at 13 MPH (11 knots; 5.7 m/s)
Visibility: 6 or more miles (10+ km)
Ceiling: ceiling and visibility are OK
Clouds: unknown
Weather: no significant weather observed at this time

Forecast for: LERS (REUS (CIV/MIL) , ES)
Text: TAF LERS 050800Z 0509/0609 29010KT 9999 FEW030 TX11/0513Z TN04/0606Z
Forecast period: 0900 UTC 05 December 2020 to 0900 UTC 06 December 2020
Forecast type: FROM: standard forecast or significant change
Winds: from the WNW (290 degrees) at 12 MPH (10 knots; 5.1 m/s)
Visibility: 6 or more miles (10+ km)
Ceiling: at least 12,000 feet AGL
Clouds: few clouds at 3000 feet AGL
Weather: no significant weather forecast for this period
Text: TEMPO 0523/0606 29015G30KT
Forecast period: 2300 UTC 05 December 2020 to 0600 UTC 06 December 2020
Forecast type: TEMPORARY: The following changes expected for less than half the time period
Winds: from the WNW (290 degrees) at 17 MPH (15 knots; 7.7 m/s)
gusting to 34 MPH (30 knots; 15.4 m/s)
Visibility: missing
Ceiling: unknown
Clouds: missing
Weather: no significant weather forecast for this period